Time;durP1;ratioP1;P1;durP2;ratioP2;P2;SDS_P1;SDS_P2;PMS_P1;PMS_P2;Temp;Humidity;BMP_temperature;BMP_pressure;BME280_temperature;BME280_humidity;BME280_pressure;Samples;Min_cycle;Max_cycle;Signal;HPM_P1;HPM_P2
2022/02/05 00:00:35;;;;;;;9.40;5.50;;;;;;;2.44;100.00;100862.69;680016;28;4981;-54
2022/02/05 00:01:04;;;;;;;7.88;5.80;;;;;;;2.44;100.00;100864.38;681124;28;1158;-53
2022/02/05 00:01:54;;;;;;;9.35;6.22;;;;;;;2.41;100.00;100865.19;680624;28;1006;-54
2022/02/05 00:02:20;;;;;;;9.18;5.93;;;;;;;2.48;100.00;100867.13;681881;28;1250;-54
2022/02/05 00:02:50;;;;;;;7.95;5.72;;;;;;;2.60;100.00;100864.03;682192;28;1011;-55
2022/02/05 00:03:39;;;;;;;9.35;5.80;;;;;;;2.66;100.00;100873.66;680629;28;3455;-55
2022/02/05 00:04:06;;;;;;;8.20;5.80;;;;;;;2.65;100.00;100877.09;680571;28;1435;-54
2022/02/05 00:04:26;;;;;;;10.27;5.90;;;;;;;2.73;100.00;100866.16;680073;28;2170;-54
2022/02/05 00:04:48;;;;;;;9.18;5.55;;;;;;;2.71;100.00;100878.16;679899;28;2168;-53
2022/02/05 00:05:10;;;;;;;9.43;6.00;;;;;;;2.70;100.00;100868.66;680983;28;1187;-53
2022/02/05 00:05:58;;;;;;;8.85;5.70;;;;;;;2.65;100.00;100865.06;681879;28;1359;-54
2022/02/05 00:06:22;;;;;;;9.30;6.03;;;;;;;2.59;100.00;100864.88;680438;28;4741;-52
2022/02/05 00:06:46;;;;;;;8.50;6.10;;;;;;;2.53;100.00;100865.56;680894;28;1147;-56
2022/02/05 00:07:08;;;;;;;8.30;5.85;;;;;;;2.51;100.00;100869.78;679805;28;1055;-54
2022/02/05 00:07:31;;;;;;;8.40;6.03;;;;;;;2.52;100.00;100868.97;681362;28;1459;-52
2022/02/05 00:08:09;;;;;;;8.02;6.18;;;;;;;2.53;100.00;100875.00;681244;28;1914;-54
2022/02/05 00:10:18;;;;;;;9.57;6.10;;;;;;;2.75;100.00;100873.97;681306;28;1006;-51
2022/02/05 00:12:08;;;;;;;8.18;5.88;;;;;;;2.81;100.00;100876.75;679919;28;3169;-56
2022/02/05 00:15:28;;;;;;;8.88;6.05;;;;;;;2.65;100.00;100874.50;681260;28;4337;-53
2022/02/05 00:15:50;;;;;;;9.18;5.68;;;;;;;2.63;100.00;100871.88;680829;28;1118;-56
2022/02/05 00:33:03;;;;;;;8.45;5.82;;;;;;;2.48;100.00;100877.44;682393;28;1378;-55
2022/02/05 00:38:24;;;;;;;8.35;4.90;;;;;;;2.58;100.00;100899.25;680694;28;980;-55
2022/02/05 00:39:28;;;;;;;7.28;4.55;;;;;;;2.63;100.00;100899.38;679180;28;4947;-56
2022/02/05 00:40:19;;;;;;;10.30;4.90;;;;;;;2.56;100.00;100903.47;677904;28;2959;-56
2022/02/05 00:41:23;;;;;;;10.00;4.63;;;;;;;2.58;100.00;100908.72;681659;28;1096;-54
2022/02/05 00:41:51;;;;;;;9.15;4.65;;;;;;;2.54;100.00;100915.47;682325;28;1254;-53
2022/02/05 00:42:37;;;;;;;9.52;4.82;;;;;;;2.52;100.00;100914.53;681223;28;6559;-56
2022/02/05 00:42:55;;;;;;;9.45;5.20;;;;;;;2.53;100.00;100906.88;680579;28;3222;-57
2022/02/05 00:43:17;;;;;;;10.48;5.18;;;;;;;2.57;100.00;100912.97;681368;28;4297;-55
2022/02/05 00:43:40;;;;;;;10.07;4.82;;;;;;;2.54;100.00;100911.19;681916;28;1288;-56
2022/02/05 00:44:03;;;;;;;9.80;4.88;;;;;;;2.57;100.00;100910.41;682212;28;1351;-52
2022/02/05 00:44:23;;;;;;;11.70;5.03;;;;;;;2.57;100.00;100914.69;681234;28;875;-56
2022/02/05 00:44:43;;;;;;;11.75;5.30;;;;;;;2.55;100.00;100918.09;681638;28;924;-52
2022/02/05 00:45:07;;;;;;;10.40;5.07;;;;;;;2.52;100.00;100915.44;681164;28;4381;-56
2022/02/05 00:45:32;;;;;;;11.05;5.00;;;;;;;2.52;100.00;100914.53;682204;28;1443;-55
2022/02/05 00:45:55;;;;;;;9.90;4.97;;;;;;;2.54;100.00;100920.63;678480;29;3461;-53
2022/02/05 00:46:15;;;;;;;9.85;4.90;;;;;;;2.54;100.00;100912.88;680544;28;1510;-53
2022/02/05 00:46:39;;;;;;;10.60;5.20;;;;;;;2.55;100.00;100919.81;679361;28;1792;-55
2022/02/05 00:47:00;;;;;;;10.98;4.90;;;;;;;2.52;100.00;100912.84;680179;28;1207;-54
2022/02/05 00:47:20;;;;;;;11.10;4.90;;;;;;;2.52;100.00;100914.53;678077;29;845;-53
2022/02/05 00:47:44;;;;;;;12.48;4.97;;;;;;;2.51;100.00;100920.53;680726;28;926;-53
2022/02/05 00:48:06;;;;;;;9.85;4.88;;;;;;;2.52;100.00;100927.44;680531;28;4368;-53
2022/02/05 00:48:26;;;;;;;10.02;4.72;;;;;;;2.64;100.00;100914.91;678979;29;920;-53
2022/02/05 00:48:48;;;;;;;10.43;4.80;;;;;;;2.62;100.00;100919.19;676260;29;4098;-55
2022/02/05 00:49:08;;;;;;;11.18;5.15;;;;;;;2.60;100.00;100919.94;673555;29;1925;-55
2022/02/05 00:49:28;;;;;;;11.97;5.03;;;;;;;2.60;100.00;100922.53;674149;29;1228;-53
2022/02/05 00:49:56;;;;;;;9.93;4.90;;;;;;;2.63;100.00;100925.19;672535;29;933;-53
2022/02/05 00:50:21;;;;;;;9.77;4.72;;;;;;;2.63;100.00;100917.47;672175;29;1229;-55
2022/02/05 00:50:46;;;;;;;9.82;4.78;;;;;;;2.60;100.00;100920.81;674222;29;980;-56
2022/02/05 00:51:15;;;;;;;8.18;4.40;;;;;;;2.59;100.00;100921.66;674782;29;4721;-56
2022/02/05 00:51:44;;;;;;;8.98;4.25;;;;;;;2.58;100.00;100922.50;677123;29;3947;-55
2022/02/05 00:52:10;;;;;;;7.85;4.20;;;;;;;2.55;100.00;100923.25;677066;28;3984;-54
2022/02/05 00:52:31;;;;;;;9.15;4.68;;;;;;;2.56;100.00;100926.69;679562;29;1054;-53
2022/02/05 00:53:40;;;;;;;9.82;4.45;;;;;;;2.57;100.00;100922.44;677480;29;1224;-54
2022/02/05 00:54:28;;;;;;;10.00;4.72;;;;;;;2.53;100.00;100922.34;675895;29;3818;-53
2022/02/05 00:54:51;;;;;;;9.93;4.70;;;;;;;2.53;100.00;100929.19;678410;28;3263;-54
2022/02/05 00:55:22;;;;;;;8.65;4.45;;;;;;;2.52;100.00;100927.44;677482;29;1311;-53
2022/02/05 00:55:51;;;;;;;8.63;4.45;;;;;;;2.67;100.00;100924.47;675223;29;1612;-52
2022/02/05 00:57:47;;;;;;;8.30;4.40;;;;;;;2.62;100.00;100924.34;674368;29;1798;-55
2022/02/05 00:58:08;;;;;;;10.23;4.57;;;;;;;2.60;100.00;100931.13;681828;28;995;-56
2022/02/05 00:58:28;;;;;;;8.85;4.22;;;;;;;2.55;100.00;100924.97;682128;28;755;-56
2022/02/05 00:58:48;;;;;;;8.60;4.53;;;;;;;2.54;100.00;100925.78;679893;29;935;-56
2022/02/05 00:59:09;;;;;;;8.90;4.47;;;;;;;2.54;100.00;100923.22;679601;28;965;-55
2022/02/05 00:59:29;;;;;;;10.95;4.40;;;;;;;2.51;100.00;100923.13;680457;29;825;-53
2022/02/05 00:59:50;;;;;;;10.48;4.28;;;;;;;2.53;100.00;100926.63;679999;29;891;-57
2022/02/05 01:00:17;;;;;;;10.47;4.43;;;;;;;2.52;100.00;100923.16;679217;28;4573;-55
2022/02/05 01:00:37;;;;;;;8.60;4.30;;;;;;;2.55;100.00;100919.81;675269;29;2349;-52
2022/02/05 01:01:01;;;;;;;9.02;4.28;;;;;;;2.64;100.00;100919.22;676853;29;1250;-54
2022/02/05 01:01:21;;;;;;;9.52;4.22;;;;;;;2.64;100.00;100933.00;674084;29;1700;-54
2022/02/05 01:01:42;;;;;;;8.45;4.05;;;;;;;2.59;100.00;100934.56;674293;29;973;-54
2022/02/05 01:02:03;;;;;;;7.50;4.22;;;;;;;2.57;100.00;100938.78;671734;29;1461;-54
2022/02/05 01:02:24;;;;;;;8.45;4.10;;;;;;;2.64;100.00;100933.00;672729;29;953;-55
2022/02/05 01:02:56;;;;;;;7.50;4.20;;;;;;;2.66;100.00;100933.03;677773;29;2139;-55
2022/02/05 01:03:19;;;;;;;8.32;4.10;;;;;;;2.66;100.00;100933.03;676779;29;6413;-55
2022/02/05 01:03:40;;;;;;;9.18;4.25;;;;;;;2.63;100.00;100935.53;678012;29;1193;-55
2022/02/05 01:04:00;;;;;;;9.85;4.53;;;;;;;2.60;100.00;100928.56;674747;29;1551;-54
2022/02/05 01:04:21;;;;;;;7.27;4.03;;;;;;;2.59;100.00;100934.56;675127;29;898;-54
2022/02/05 01:04:41;;;;;;;9.32;4.20;;;;;;;2.57;100.00;100931.03;676779;29;775;-56
2022/02/05 01:05:02;;;;;;;8.52;4.13;;;;;;;2.52;100.00;100935.19;678390;28;1197;-53
2022/02/05 01:05:22;;;;;;;7.00;4.10;;;;;;;2.50;100.00;100939.44;677255;29;1439;-56
2022/02/05 01:05:46;;;;;;;8.40;4.28;;;;;;;2.53;100.00;100936.94;674893;29;4134;-54
2022/02/05 01:06:08;;;;;;;9.70;4.45;;;;;;;2.51;100.00;100938.59;676750;29;4381;-52
2022/02/05 01:06:28;;;;;;;8.90;4.28;;;;;;;2.49;100.00;100937.66;679381;29;1638;-56
2022/02/05 01:06:49;;;;;;;9.25;4.63;;;;;;;2.51;100.00;100928.28;679541;29;857;-56
2022/02/05 01:07:09;;;;;;;8.27;4.07;;;;;;;2.51;100.00;100936.03;677504;29;991;-53
2022/02/05 01:07:30;;;;;;;9.03;4.50;;;;;;;2.48;100.00;100931.63;680898;28;959;-52
2022/02/05 01:07:50;;;;;;;8.85;4.28;;;;;;;2.48;100.00;100933.31;682079;28;1997;-52
2022/02/05 01:08:11;;;;;;;7.78;4.35;;;;;;;2.47;100.00;100934.19;680212;28;1424;-55
2022/02/05 01:08:33;;;;;;;8.23;4.10;;;;;;;2.52;100.00;100930.00;679796;29;2110;-53
2022/02/05 01:08:57;;;;;;;8.95;4.00;;;;;;;2.53;100.00;100936.94;680349;28;4599;-55
2022/02/05 01:09:24;;;;;;;8.40;4.13;;;;;;;2.49;100.00;100929.91;678511;29;1341;-55
2022/02/05 01:09:47;;;;;;;9.77;4.60;;;;;;;2.47;100.00;100935.03;675895;29;1398;-55
2022/02/05 01:10:08;;;;;;;9.35;4.28;;;;;;;2.45;100.00;100930.66;674184;29;1209;-54
2022/02/05 01:10:29;;;;;;;9.48;4.30;;;;;;;2.44;100.00;100928.88;676207;29;801;-56
2022/02/05 01:10:50;;;;;;;8.68;4.10;;;;;;;2.41;100.00;100934.84;674445;29;958;-55
2022/02/05 01:11:11;;;;;;;7.93;4.07;;;;;;;2.37;100.00;100923.53;675423;29;1066;-55
2022/02/05 01:11:32;;;;;;;8.93;4.43;;;;;;;2.38;100.00;100930.47;676589;29;3756;-54
2022/02/05 01:11:55;;;;;;;10.00;4.47;;;;;;;2.41;100.00;100942.59;677218;29;4874;-53
2022/02/05 01:12:17;;;;;;;9.50;4.57;;;;;;;2.42;100.00;100936.59;679219;28;992;-56
2022/02/05 01:12:42;;;;;;;9.43;4.55;;;;;;;2.41;100.00;100927.13;679829;28;1427;-55
2022/02/05 01:13:07;;;;;;;8.57;4.40;;;;;;;2.42;100.00;100933.13;682376;28;1200;-55
2022/02/05 01:13:31;;;;;;;10.27;4.65;;;;;;;2.41;100.00;100931.38;681722;28;817;-54
2022/02/05 01:13:54;;;;;;;8.55;4.10;;;;;;;2.37;100.00;100930.41;682249;28;1404;-54
2022/02/05 01:14:18;;;;;;;9.75;4.32;;;;;;;2.33;100.00;100936.31;681663;28;1786;-54
2022/02/05 01:14:50;;;;;;;10.77;4.60;;;;;;;2.31;100.00;100932.78;681770;28;2091;-55
2022/02/05 01:15:12;;;;;;;7.78;4.03;;;;;;;2.32;100.00;100937.97;681312;28;5042;-55
2022/02/05 01:15:50;;;;;;;8.75;4.20;;;;;;;2.29;100.00;100937.88;681144;28;1018;-55
2022/02/05 01:16:22;;;;;;;10.68;4.72;;;;;;;2.32;100.00;100943.16;680126;28;2825;-54
2022/02/05 01:16:57;;;;;;;12.38;4.60;;;;;;;2.31;100.00;100944.00;680839;28;1081;-56
2022/02/05 01:17:24;;;;;;;10.45;4.88;;;;;;;2.30;100.00;100933.59;680649;28;3637;-52
2022/02/05 01:17:51;;;;;;;10.10;4.70;;;;;;;2.29;100.00;100935.31;678880;28;1617;-56
2022/02/05 01:18:14;;;;;;;10.25;4.60;;;;;;;2.29;100.00;100931.88;679684;28;5234;-55
2022/02/05 01:18:37;;;;;;;9.07;4.50;;;;;;;2.28;100.00;100941.28;679073;29;1364;-51
2022/02/05 01:18:58;;;;;;;9.77;4.40;;;;;;;2.27;100.00;100938.66;676026;29;980;-55
2022/02/05 01:20:28;;;;;;;8.43;4.50;;;;;;;2.19;100.00;100941.00;676336;29;3716;-54
2022/02/05 01:21:36;;;;;;;9.80;4.45;;;;;;;2.26;100.00;100931.75;680573;28;6017;-55
2022/02/05 01:21:58;;;;;;;8.77;4.20;;;;;;;2.24;100.00;100936.84;681419;28;1228;-55
2022/02/05 01:22:19;;;;;;;8.38;4.25;;;;;;;2.23;100.00;100940.28;681563;28;984;-56
2022/02/05 01:22:42;;;;;;;9.75;4.40;;;;;;;2.20;100.00;100933.31;682291;28;2411;-55
2022/02/05 01:23:06;;;;;;;10.20;4.70;;;;;;;2.32;100.00;100937.97;681878;28;1279;-55
2022/02/05 01:23:43;;;;;;;9.45;4.38;;;;;;;2.29;100.00;100940.47;681905;28;3555;-53
2022/02/05 01:24:07;;;;;;;10.38;4.70;;;;;;;2.24;100.00;100942.00;681628;28;4542;-56
2022/02/05 01:24:28;;;;;;;8.63;4.47;;;;;;;2.23;100.00;100937.69;679111;29;1085;-57
2022/02/05 01:24:51;;;;;;;9.75;4.70;;;;;;;2.22;100.00;100931.66;679037;29;1062;-60
2022/02/05 01:25:14;;;;;;;8.73;4.22;;;;;;;2.21;100.00;100939.34;679546;28;1060;-56
2022/02/05 01:25:40;;;;;;;9.75;4.65;;;;;;;2.18;100.00;100944.41;678852;29;3626;-56
2022/02/05 01:26:14;;;;;;;9.25;4.43;;;;;;;2.17;100.00;100948.69;678531;28;1443;-54
2022/02/05 01:26:40;;;;;;;8.98;4.50;;;;;;;2.14;100.00;100951.13;682400;28;1378;-53
2022/02/05 01:27:10;;;;;;;11.02;4.20;;;;;;;2.14;100.00;100952.84;681140;28;4393;-53
2022/02/05 01:27:56;;;;;;;8.88;4.30;;;;;;;2.13;100.00;100948.50;680071;29;998;-52
2022/02/05 01:28:16;;;;;;;8.20;4.00;;;;;;;2.31;100.00;100948.25;678270;28;1169;-52
2022/02/05 01:28:38;;;;;;;8.80;4.20;;;;;;;2.31;100.00;100951.75;679838;29;3591;-53
2022/02/05 01:29:04;;;;;;;9.25;3.97;;;;;;;2.28;100.00;100951.59;678688;28;1192;-56
2022/02/05 01:29:47;;;;;;;8.27;4.05;;;;;;;2.25;100.00;100954.09;680385;28;1469;-55
2022/02/05 01:30:23;;;;;;;8.75;4.22;;;;;;;2.21;100.00;100947.06;679878;28;4546;-56
2022/02/05 01:30:48;;;;;;;8.45;4.38;;;;;;;2.16;100.00;100952.09;682468;28;1032;-54
2022/02/05 01:31:09;;;;;;;8.27;4.05;;;;;;;2.15;100.00;100947.75;682658;28;2117;-58
2022/02/05 01:31:36;;;;;;;8.73;4.20;;;;;;;2.15;100.00;100958.06;676578;29;2228;-53
2022/02/05 01:32:01;;;;;;;8.68;4.05;;;;;;;2.14;100.00;100961.47;676590;29;1344;-56
2022/02/05 01:32:25;;;;;;;8.10;4.13;;;;;;;2.24;100.00;100949.75;677669;29;1077;-56
2022/02/05 01:32:59;;;;;;;8.68;4.60;;;;;;;2.26;100.00;100945.53;675777;29;1132;-54
2022/02/05 01:33:39;;;;;;;8.10;3.90;;;;;;;2.34;100.00;100953.50;680602;28;5136;-53
2022/02/05 01:34:36;;;;;;;9.38;4.10;;;;;;;2.28;100.00;100968.81;681225;28;1302;-53
2022/02/05 01:35:04;;;;;;;8.90;4.60;;;;;;;2.24;100.00;100961.78;681866;28;1085;-54
2022/02/05 01:35:37;;;;;;;10.52;4.50;;;;;;;2.20;100.00;100960.78;680847;28;968;-56
2022/02/05 01:36:29;;;;;;;8.50;4.10;;;;;;;2.15;100.00;100959.78;681694;28;4387;-53
2022/02/05 01:48:54;;;;;;;9.68;4.60;;;;;;;2.08;100.00;100960.38;681197;28;4959;-55
2022/02/05 01:50:18;;;;;;;9.35;4.32;;;;;;;1.98;100.00;100975.53;680669;28;1484;-54
2022/02/05 01:51:01;;;;;;;10.00;4.37;;;;;;;1.98;100.00;100974.63;682771;28;827;-54
2022/02/05 01:52:12;;;;;;;9.73;4.18;;;;;;;1.92;100.00;100977.88;674732;29;1218;-51
2022/02/05 01:53:25;;;;;;;10.32;4.18;;;;;;;1.86;100.00;100973.38;677278;29;803;-51
2022/02/05 01:53:37;;;;;;;8.98;4.20;;;;;;;1.94;100.00;100971.09;667856;29;1236;-58
2022/02/05 01:54:17;;;;;;;9.65;4.15;;;;;;;2.04;100.00;100980.03;680770;28;4624;-51
2022/02/05 01:55:51;;;;;;;9.35;4.40;;;;;;;1.97;100.00;100980.66;678591;29;944;-52
2022/02/05 01:56:31;;;;;;;8.85;3.78;;;;;;;1.97;100.00;100978.94;679692;28;1349;-54
2022/02/05 01:57:08;;;;;;;10.02;4.25;;;;;;;2.00;100.00;100980.75;678134;28;4357;-54
2022/02/05 01:57:52;;;;;;;9.85;4.00;;;;;;;1.96;100.00;100982.31;682257;28;1341;-51
2022/02/05 01:58:36;;;;;;;9.38;3.80;;;;;;;1.94;100.00;100985.66;682513;28;1584;-56
2022/02/05 01:59:14;;;;;;;9.60;4.10;;;;;;;1.92;100.00;100992.50;681895;28;840;-56
2022/02/05 02:05:10;;;;;;;9.45;3.60;;;;;;;2.11;100.00;100996.59;677959;28;3195;-56
2022/02/05 02:05:38;;;;;;;9.07;3.80;;;;;;;2.16;100.00;101000.19;678594;28;3686;-54
2022/02/05 02:06:27;;;;;;;7.88;3.38;;;;;;;2.07;100.00;100992.16;676659;28;4592;-51
2022/02/05 02:09:43;;;;;;;7.25;3.85;;;;;;;1.92;100.00;101002.81;680896;28;6095;-56
2022/02/05 02:10:26;;;;;;;8.93;3.97;;;;;;;1.97;100.00;101006.44;681223;28;1114;-54
2022/02/05 02:11:32;;;;;;;7.72;3.28;;;;;;;2.02;100.00;101000.63;680437;28;4059;-54
2022/02/05 02:12:01;;;;;;;8.48;3.63;;;;;;;2.09;100.00;101000.81;680877;28;4934;-53
2022/02/05 02:12:25;;;;;;;10.18;3.60;;;;;;;2.08;100.00;100999.94;682001;28;903;-54
2022/02/05 02:12:59;;;;;;;10.63;3.58;;;;;;;2.08;100.00;101004.22;682003;28;1089;-52
2022/02/05 02:14:48;;;;;;;9.57;3.42;;;;;;;2.14;100.00;100999.28;680569;28;927;-52
2022/02/05 02:15:22;;;;;;;8.57;3.38;;;;;;;2.14;100.00;100996.69;679605;28;4293;-55
2022/02/05 02:17:58;;;;;;;9.35;3.65;;;;;;;2.09;100.00;101001.72;679959;28;1212;-58
2022/02/05 02:18:14;;;;;;;8.73;3.08;;;;;;;2.18;100.00;100996.00;681764;28;1125;-54
2022/02/05 02:18:56;;;;;;;8.65;3.15;;;;;;;2.19;100.00;100992.59;677514;29;5053;-54
2022/02/05 02:19:28;;;;;;;8.23;3.22;;;;;;;2.19;100.00;100993.47;676130;29;3282;-52
2022/02/05 02:20:28;;;;;;;7.30;3.00;;;;;;;2.20;100.00;100994.31;677946;29;1009;-57
2022/02/05 02:21:39;;;;;;;7.32;2.97;;;;;;;2.30;100.00;100991.25;682112;28;5231;-56
2022/02/05 02:22:20;;;;;;;8.77;3.00;;;;;;;2.35;100.00;100996.56;682653;28;1161;-54
2022/02/05 02:22:50;;;;;;;9.27;3.17;;;;;;;2.32;100.00;100989.59;680361;28;1099;-57
2022/02/05 02:23:23;;;;;;;8.07;3.22;;;;;;;2.32;100.00;100993.88;683468;28;996;-54
2022/02/05 02:24:12;;;;;;;8.02;3.28;;;;;;;2.26;100.00;100998.81;679615;29;948;-57
2022/02/05 02:25:16;;;;;;;8.60;3.22;;;;;;;2.21;100.00;101003.81;677492;28;3431;-53
2022/02/05 02:28:07;;;;;;;7.57;3.00;;;;;;;2.15;100.00;101001.91;682821;28;2179;-54
2022/02/05 02:28:56;;;;;;;9.20;3.00;;;;;;;2.17;100.00;101009.69;681943;28;1308;-56
2022/02/05 02:29:28;;;;;;;7.90;3.05;;;;;;;2.14;100.00;101004.44;681399;28;1159;-54
2022/02/05 02:30:06;;;;;;;9.18;3.33;;;;;;;2.22;100.00;100993.56;682865;28;971;-54
2022/02/05 02:30:30;;;;;;;7.78;2.95;;;;;;;2.21;100.00;100990.94;681024;28;5013;-55
2022/02/05 02:31:02;;;;;;;7.60;2.75;;;;;;;2.19;100.00;100998.63;681331;28;3583;-55
2022/02/05 02:31:27;;;;;;;8.07;2.75;;;;;;;2.26;100.00;100998.81;680820;28;1465;-54
2022/02/05 02:31:50;;;;;;;9.35;3.17;;;;;;;2.26;100.00;100998.81;681641;28;758;-55
2022/02/05 02:32:11;;;;;;;9.55;2.90;;;;;;;2.29;100.00;101001.53;681698;28;1348;-52
2022/02/05 02:32:34;;;;;;;8.50;2.80;;;;;;;2.27;100.00;101001.47;679317;29;1038;-57
2022/02/05 02:33:05;;;;;;;8.35;2.88;;;;;;;2.24;100.00;100993.59;678909;28;4353;-54
2022/02/05 02:33:36;;;;;;;9.50;3.03;;;;;;;2.25;100.00;100997.94;679062;29;3368;-53
2022/02/05 02:34:01;;;;;;;6.68;2.65;;;;;;;2.24;100.00;100997.91;677317;29;1238;-56
2022/02/05 02:34:27;;;;;;;8.00;2.85;;;;;;;2.22;100.00;101005.59;677977;29;1061;-56
2022/02/05 02:34:52;;;;;;;8.52;3.15;;;;;;;2.19;100.00;100997.75;679196;29;991;-54
2022/02/05 02:35:18;;;;;;;8.82;3.17;;;;;;;2.18;100.00;100996.84;679588;28;1124;-54
2022/02/05 02:35:44;;;;;;;10.63;3.00;;;;;;;2.17;100.00;101007.13;680503;28;853;-53
2022/02/05 02:36:14;;;;;;;9.20;2.70;;;;;;;2.13;100.00;101008.72;678298;28;5127;-55
2022/02/05 02:36:59;;;;;;;7.70;2.80;;;;;;;2.15;100.00;101008.78;675519;29;1471;-54
2022/02/05 02:37:31;;;;;;;9.48;2.70;;;;;;;2.18;100.00;101006.31;674295;29;1007;-53
2022/02/05 02:38:05;;;;;;;8.50;2.90;;;;;;;2.27;100.00;101004.06;676567;29;1308;-54
2022/02/05 02:38:34;;;;;;;9.48;2.75;;;;;;;2.28;100.00;101005.78;680595;28;805;-54
2022/02/05 02:39:01;;;;;;;8.88;3.08;;;;;;;2.33;100.00;101004.25;680741;28;4495;-51
2022/02/05 02:39:27;;;;;;;7.88;2.60;;;;;;;2.37;100.00;100998.38;682114;28;3461;-53
2022/02/05 02:41:03;;;;;;;7.40;2.60;;;;;;;2.33;100.00;101008.53;680839;28;972;-57
2022/02/05 02:41:29;;;;;;;8.52;2.70;;;;;;;2.29;100.00;101020.44;681762;28;1010;-56
2022/02/05 02:41:55;;;;;;;10.13;2.88;;;;;;;2.25;100.00;101016.00;681915;28;1039;-56
2022/02/05 02:42:16;;;;;;;7.38;2.90;;;;;;;2.24;100.00;101006.50;679702;28;4911;-52
2022/02/05 02:42:42;;;;;;;9.23;3.00;;;;;;;2.26;100.00;101004.88;681283;28;1215;-55
2022/02/05 02:43:08;;;;;;;11.38;3.20;;;;;;;2.25;100.00;101020.31;680500;28;1169;-52
2022/02/05 02:43:31;;;;;;;10.82;3.10;;;;;;;2.22;100.00;101015.91;680543;28;1011;-56
2022/02/05 02:43:52;;;;;;;9.80;2.90;;;;;;;2.20;100.00;101009.78;681069;29;835;-54
2022/02/05 02:44:16;;;;;;;8.32;2.70;;;;;;;2.16;100.00;101011.41;678909;28;1143;-52
2022/02/05 02:44:36;;;;;;;8.38;2.70;;;;;;;2.14;100.00;101009.59;679749;29;1281;-57
2022/02/05 02:45:03;;;;;;;9.98;2.88;;;;;;;2.14;100.00;101014.75;679689;28;4572;-55
2022/02/05 02:45:23;;;;;;;10.32;2.85;;;;;;;2.12;100.00;101016.38;678679;29;2022;-56
2022/02/05 02:45:45;;;;;;;8.70;2.60;;;;;;;2.10;100.00;101015.47;679677;28;853;-53
2022/02/05 02:46:06;;;;;;;7.47;2.72;;;;;;;2.10;100.00;101012.91;679521;28;1535;-54
2022/02/05 02:46:28;;;;;;;8.60;2.90;;;;;;;2.05;100.00;101015.31;682605;28;951;-57
2022/02/05 02:46:49;;;;;;;9.10;2.92;;;;;;;2.02;100.00;101018.66;682056;28;1054;-57
2022/02/05 02:47:09;;;;;;;8.80;3.00;;;;;;;2.06;100.00;101016.19;681670;28;1195;-54
2022/02/05 02:47:30;;;;;;;11.67;2.90;;;;;;;2.07;100.00;101023.09;682012;28;1797;-57
2022/02/05 02:47:50;;;;;;;9.32;2.55;;;;;;;2.12;100.00;101018.97;681059;28;4288;-55
2022/02/05 02:48:11;;;;;;;7.90;2.80;;;;;;;2.15;100.00;101022.53;679629;28;4502;-55
2022/02/05 02:48:31;;;;;;;7.03;2.85;;;;;;;2.17;100.00;101020.03;681634;28;1445;-53
2022/02/05 02:48:52;;;;;;;9.50;3.20;;;;;;;2.18;100.00;101027.81;683671;28;990;-52
2022/02/05 02:49:17;;;;;;;9.02;2.95;;;;;;;2.17;100.00;101026.06;679275;28;1245;-56
2022/02/05 02:49:56;;;;;;;11.32;3.38;;;;;;;2.13;100.00;101029.38;678131;29;940;-54
2022/02/05 02:57:36;;;;;;;10.07;3.07;;;;;;;2.32;100.00;101033.44;682832;28;1019;-55
2022/02/05 02:58:00;;;;;;;9.24;2.54;;;;;;;2.30;100.00;101024.78;682190;28;896;-56
2022/02/05 02:58:26;;;;;;;7.78;2.60;;;;;;;2.29;100.00;101035.06;682356;28;1115;-54
2022/02/05 02:58:48;;;;;;;8.10;2.60;;;;;;;2.29;100.00;101032.47;681240;28;784;-53
2022/02/05 02:59:22;;;;;;;8.02;2.55;;;;;;;2.41;100.00;101032.00;681009;28;2083;-53
2022/02/05 03:00:11;;;;;;;8.45;2.90;;;;;;;2.38;100.00;101030.19;681182;28;4458;-52
2022/02/05 03:00:32;;;;;;;8.40;2.72;;;;;;;2.49;100.00;101036.63;682219;28;1333;-53
2022/02/05 03:00:56;;;;;;;9.60;2.80;;;;;;;2.44;100.00;101035.59;682174;28;995;-51
2022/02/05 03:01:19;;;;;;;8.63;2.85;;;;;;;2.38;100.00;101036.25;681302;28;1056;-54
2022/02/05 03:01:42;;;;;;;8.48;2.65;;;;;;;2.32;100.00;101025.72;682969;28;940;-55
2022/02/05 03:02:12;;;;;;;8.05;2.63;;;;;;;2.35;100.00;101036.16;680670;28;4229;-55
2022/02/05 03:02:32;;;;;;;10.27;2.95;;;;;;;2.40;100.00;101038.03;681478;28;1459;-55
2022/02/05 03:02:54;;;;;;;9.77;2.80;;;;;;;2.38;100.00;101031.09;677866;28;4593;-56
2022/02/05 03:03:14;;;;;;;6.88;2.47;;;;;;;2.36;100.00;101037.88;679532;28;1107;-51
2022/02/05 03:03:34;;;;;;;6.77;2.50;;;;;;;2.33;100.00;101035.22;678890;29;940;-54
2022/02/05 03:03:55;;;;;;;7.23;2.77;;;;;;;2.30;100.00;101032.53;679446;29;955;-53
2022/02/05 03:04:15;;;;;;;9.07;3.30;;;;;;;2.31;100.00;101031.72;679029;28;1231;-52
2022/02/05 03:04:35;;;;;;;8.33;2.83;;;;;;;2.37;100.00;101033.63;678315;28;3269;-52
2022/02/05 03:04:56;;;;;;;9.82;2.72;;;;;;;2.39;100.00;101039.69;680367;28;3484;-53
2022/02/05 03:05:16;;;;;;;9.73;2.57;;;;;;;2.37;100.00;101039.66;681083;28;1168;-54
2022/02/05 03:05:37;;;;;;;7.93;2.40;;;;;;;2.35;100.00;101036.16;678824;29;1165;-54
2022/02/05 03:05:57;;;;;;;8.83;2.80;;;;;;;2.43;100.00;101039.00;679077;28;4317;-55
2022/02/05 03:06:17;;;;;;;9.18;2.80;;;;;;;2.42;100.00;101037.22;678878;29;1189;-53
2022/02/05 03:06:38;;;;;;;7.13;2.80;;;;;;;2.35;100.00;101043.91;679386;29;926;-54
2022/02/05 03:06:58;;;;;;;7.75;2.90;;;;;;;2.32;100.00;101045.47;678776;28;1239;-55
2022/02/05 03:07:19;;;;;;;8.47;2.97;;;;;;;2.28;100.00;101044.47;679875;28;801;-54
2022/02/05 03:07:39;;;;;;;8.63;3.08;;;;;;;2.27;100.00;101052.19;679735;28;3736;-52
2022/02/05 03:07:59;;;;;;;7.70;2.93;;;;;;;2.25;100.00;101041.81;681696;28;3998;-53
2022/02/05 03:08:20;;;;;;;9.00;2.88;;;;;;;2.21;100.00;101050.25;681605;28;1332;-52
2022/02/05 03:08:43;;;;;;;10.33;3.00;;;;;;;2.20;100.00;101048.50;681235;28;2538;-55
2022/02/05 03:09:03;;;;;;;12.15;2.95;;;;;;;2.19;100.00;101045.03;680539;28;4347;-56
2022/02/05 03:09:24;;;;;;;8.83;2.80;;;;;;;2.15;100.00;101043.19;680101;29;911;-56
2022/02/05 03:09:45;;;;;;;8.03;2.70;;;;;;;2.27;100.00;101039.28;678662;29;974;-56
2022/02/05 03:10:06;;;;;;;7.72;2.65;;;;;;;2.27;100.00;101036.69;681156;28;1099;-56
2022/02/05 03:10:27;;;;;;;8.43;2.95;;;;;;;2.27;100.00;101044.44;680025;28;4480;-55
2022/02/05 03:10:48;;;;;;;7.82;2.72;;;;;;;2.23;100.00;101040.88;677503;29;4208;-54
2022/02/05 03:11:08;;;;;;;8.97;3.00;;;;;;;2.23;100.00;101046.03;676756;29;1835;-54
2022/02/05 03:11:28;;;;;;;7.33;2.60;;;;;;;2.21;100.00;101050.25;678832;29;987;-55
2022/02/05 03:11:50;;;;;;;9.17;2.90;;;;;;;2.19;100.00;101041.59;678387;29;1390;-53
2022/02/05 03:12:10;;;;;;;9.65;3.05;;;;;;;2.17;100.00;101051.88;674658;29;4335;-55
2022/02/05 03:12:31;;;;;;;9.55;3.08;;;;;;;2.16;100.00;101052.69;675997;29;918;-55
2022/02/05 03:12:51;;;;;;;7.97;3.03;;;;;;;2.15;100.00;101052.63;679178;29;1566;-53
2022/02/05 03:13:12;;;;;;;8.52;2.92;;;;;;;2.12;100.00;101053.41;676413;29;3980;-54
2022/02/05 03:13:32;;;;;;;8.67;3.10;;;;;;;2.17;100.00;101040.66;672654;29;1596;-55
2022/02/05 03:13:52;;;;;;;8.10;2.90;;;;;;;2.17;100.00;101050.97;674641;29;1455;-51
2022/02/05 03:14:13;;;;;;;7.93;2.80;;;;;;;2.17;100.00;101053.56;676306;29;901;-55
2022/02/05 03:14:33;;;;;;;9.53;2.80;;;;;;;2.15;100.00;101044.91;676503;29;877;-54
2022/02/05 03:14:54;;;;;;;9.23;2.70;;;;;;;2.14;100.00;101050.88;675165;29;4939;-55
2022/02/05 03:15:18;;;;;;;8.97;2.80;;;;;;;2.12;100.00;101045.66;680426;28;1284;-56
2022/02/05 03:15:41;;;;;;;9.20;2.58;;;;;;;2.08;100.00;101054.09;681753;28;909;-54
2022/02/05 03:16:02;;;;;;;8.27;2.60;;;;;;;2.06;100.00;101060.03;680549;28;3721;-54
2022/02/05 03:16:24;;;;;;;7.97;2.70;;;;;;;2.06;100.00;101054.88;679562;28;3344;-55
2022/02/05 03:16:49;;;;;;;8.43;2.78;;;;;;;2.04;100.00;101057.41;679814;28;1520;-53
2022/02/05 03:17:21;;;;;;;8.30;2.60;;;;;;;2.02;100.00;101048.72;678356;29;994;-51
2022/02/05 03:18:31;;;;;;;8.02;2.90;;;;;;;1.99;100.00;101062.38;680675;28;4845;-54
2022/02/05 03:19:10;;;;;;;8.90;3.08;;;;;;;1.99;100.00;101053.75;680459;28;3980;-54
2022/02/05 03:19:31;;;;;;;9.35;3.38;;;;;;;1.92;100.00;101055.25;681416;28;1303;-52